createdAt,value
2017-08-09T12:13:29.698Z,26.39
2017-08-09T12:13:30.275Z,26.43
2017-08-09T12:13:30.880Z,26.39
2017-08-09T12:13:31.477Z,26.49
2017-08-09T12:13:32.074Z,26.40
2017-08-09T12:13:32.677Z,26.42
2017-08-09T12:13:33.270Z,26.39
2017-08-09T12:14:27.754Z,26.05
2017-08-09T12:14:28.330Z,26.08
2017-08-09T12:14:28.931Z,25.99
2017-08-09T12:14:29.533Z,26.09
2017-08-09T12:14:30.135Z,26.04
2017-08-09T12:14:30.738Z,26.11
2017-08-09T12:14:31.331Z,26.11
2017-08-09T12:14:31.930Z,26.15
2017-08-09T12:15:25.490Z,25.99
2017-08-09T12:15:26.089Z,26.01
2017-08-09T12:15:26.686Z,25.87
2017-08-09T12:15:27.286Z,26.02
2017-08-09T12:15:27.889Z,25.91
2017-08-09T12:15:28.489Z,25.98
2017-08-09T12:15:29.090Z,26.01
2017-08-09T12:15:29.687Z,26.02
2017-08-09T12:16:23.774Z,25.39
2017-08-09T12:16:24.363Z,25.50
2017-08-09T12:16:24.954Z,25.52
2017-08-09T12:16:25.554Z,25.42
2017-08-09T12:16:26.161Z,25.39
2017-08-09T12:16:26.759Z,25.50
2017-08-09T12:16:27.359Z,25.46
2017-08-09T12:17:20.897Z,25.09
2017-08-09T12:17:21.497Z,25.15
2017-08-09T12:17:22.097Z,25.16
2017-08-09T12:17:22.698Z,25.10
2017-08-09T12:17:23.293Z,25.15
2017-08-09T12:17:23.895Z,25.07
2017-08-09T12:17:24.496Z,25.10
2017-08-09T12:17:25.096Z,25.16
2017-08-09T12:18:18.685Z,25.12
2017-08-09T12:18:19.253Z,25.05
2017-08-09T12:18:19.851Z,25.07
2017-08-09T12:18:20.453Z,25.13
2017-08-09T12:18:21.054Z,25.09
2017-08-09T12:18:21.655Z,25.09
2017-08-09T12:18:22.255Z,25.09
2017-08-09T12:18:22.851Z,25.16
2017-08-09T12:19:16.408Z,25.30
2017-08-09T12:19:17.005Z,25.31
2017-08-09T12:19:17.603Z,25.28
2017-08-09T12:19:18.203Z,25.28
2017-08-09T12:19:18.805Z,25.37
2017-08-09T12:19:19.407Z,25.30
2017-08-09T12:19:20.005Z,25.32
2017-08-09T12:19:20.608Z,25.30
2017-08-09T12:20:14.168Z,25.39
2017-08-09T12:20:14.769Z,25.52
2017-08-09T12:20:15.385Z,25.39
2017-08-09T12:20:15.953Z,25.47
2017-08-09T12:20:16.556Z,25.49
2017-08-09T12:20:17.153Z,25.46
2017-08-09T12:20:17.752Z,25.38
2017-08-09T12:20:18.353Z,25.49
2017-08-09T12:21:12.839Z,26.04
2017-08-09T12:21:13.435Z,25.91
2017-08-09T12:21:14.115Z,26.01
2017-08-09T12:21:14.633Z,25.97
2017-08-09T12:21:15.233Z,26.01
2017-08-09T12:21:15.834Z,25.99
2017-08-09T12:21:16.437Z,26.05
2017-08-09T12:21:17.036Z,26.01
2017-08-09T12:22:10.491Z,26.24
2017-08-09T12:22:11.087Z,26.31
2017-08-09T12:22:11.693Z,26.40
2017-08-09T12:22:12.289Z,26.37
2017-08-09T12:22:12.889Z,26.29
2017-08-09T12:22:13.486Z,26.37
2017-08-09T12:22:14.082Z,26.32
2017-08-09T12:22:14.689Z,26.28
2017-08-09T12:23:08.257Z,26.18
2017-08-09T12:23:08.840Z,26.18
2017-08-09T12:23:09.437Z,26.22
2017-08-09T12:23:10.040Z,26.22
2017-08-09T12:23:10.637Z,26.08
2017-08-09T12:23:11.240Z,26.17
2017-08-09T12:23:11.844Z,26.21
2017-08-09T12:23:12.444Z,26.22
2017-08-09T12:24:06.034Z,26.17
2017-08-09T12:24:06.595Z,26.09
2017-08-09T12:24:07.198Z,26.06
2017-08-09T12:24:07.791Z,26.12
2017-08-09T12:24:08.394Z,26.11
2017-08-09T12:24:08.997Z,26.09
2017-08-09T12:24:09.597Z,26.08
2017-08-09T12:24:10.335Z,26.15
2017-08-09T12:25:03.767Z,26.02
2017-08-09T12:25:04.351Z,26.01
2017-08-09T12:25:04.951Z,26.02
2017-08-09T12:25:05.551Z,26.05
2017-08-09T12:25:06.151Z,26.06
2017-08-09T12:25:06.749Z,26.01
2017-08-09T12:25:07.348Z,26.02
2017-08-09T12:25:07.950Z,26.02
2017-08-09T12:26:02.428Z,25.75
2017-08-09T12:26:03.027Z,25.72
2017-08-09T12:26:04.493Z,25.75
2017-08-09T12:26:04.993Z,25.77
2017-08-09T12:26:05.596Z,25.79
2017-08-09T12:26:06.201Z,25.75
2017-08-09T12:26:06.799Z,25.74
2017-08-09T12:27:00.282Z,25.68
2017-08-09T12:27:00.879Z,25.61
2017-08-09T12:27:01.480Z,25.65
2017-08-09T12:27:02.077Z,25.67
2017-08-09T12:27:02.684Z,25.62
2017-08-09T12:27:03.280Z,25.69
2017-08-09T12:27:03.887Z,25.65
2017-08-09T12:27:04.483Z,25.64
2017-08-09T12:27:58.958Z,25.34
2017-08-09T12:27:59.555Z,25.30
2017-08-09T12:28:00.153Z,25.28
2017-08-09T12:28:00.751Z,25.28
2017-08-09T12:28:01.365Z,25.27
2017-08-09T12:28:01.970Z,25.30
2017-08-09T12:28:02.576Z,25.24
2017-08-09T12:28:03.155Z,25.20
2017-08-09T12:28:57.123Z,25.10
2017-08-09T12:28:57.714Z,25.15
2017-08-09T12:28:58.316Z,25.12
2017-08-09T12:28:58.914Z,25.02
2017-08-09T12:28:59.514Z,25.06
2017-08-09T12:29:00.121Z,25.10
2017-08-09T12:29:00.722Z,25.13
2017-08-09T12:29:55.111Z,25.25
2017-08-09T12:29:55.675Z,25.28
2017-08-09T12:29:56.279Z,25.28
2017-08-09T12:29:56.878Z,25.28
2017-08-09T12:29:57.476Z,25.25
2017-08-09T12:29:58.079Z,25.27
2017-08-09T12:29:58.678Z,25.16
2017-08-09T12:29:59.277Z,25.30
2017-08-09T12:30:52.843Z,25.42
2017-08-09T12:30:53.433Z,25.47
2017-08-09T12:30:54.028Z,25.53
2017-08-09T12:30:54.628Z,25.44
2017-08-09T12:30:55.232Z,25.42
2017-08-09T12:30:55.832Z,25.50
2017-08-09T12:30:56.428Z,25.49
2017-08-09T12:30:57.032Z,25.52
2017-08-09T12:31:51.513Z,25.62
2017-08-09T12:31:52.112Z,25.59
2017-08-09T12:31:52.709Z,25.61
2017-08-09T12:31:53.311Z,25.64
2017-08-09T12:31:53.907Z,25.53
2017-08-09T12:31:54.507Z,25.61
2017-08-09T12:31:55.108Z,25.62
2017-08-09T12:31:55.707Z,25.62
2017-08-09T12:32:49.262Z,25.99
2017-08-09T12:32:49.866Z,25.94
2017-08-09T12:32:50.461Z,25.90
2017-08-09T12:32:51.064Z,25.94
2017-08-09T12:32:51.665Z,26.04
2017-08-09T12:32:52.268Z,25.99
2017-08-09T12:32:52.861Z,26.01
2017-08-09T12:32:53.463Z,25.98
2017-08-09T12:33:47.942Z,26.21
2017-08-09T12:33:48.546Z,26.18
2017-08-09T12:33:49.137Z,26.22
2017-08-09T12:33:49.732Z,26.20
2017-08-09T12:33:50.333Z,26.18
2017-08-09T12:33:50.933Z,26.18
2017-08-09T12:33:51.532Z,26.15
2017-08-09T12:33:52.140Z,26.20
2017-08-09T12:34:45.592Z,26.32
2017-08-09T12:34:46.190Z,26.42
2017-08-09T12:34:46.793Z,26.40
2017-08-09T12:34:47.390Z,26.37
2017-08-09T12:34:47.996Z,26.39
2017-08-09T12:34:48.590Z,26.36
2017-08-09T12:34:49.189Z,26.44
2017-08-09T12:34:49.790Z,26.40
2017-08-09T12:35:43.368Z,26.29
2017-08-09T12:35:43.945Z,26.31
2017-08-09T12:35:44.544Z,26.31
2017-08-09T12:35:45.144Z,26.31
2017-08-09T12:35:45.754Z,26.28
2017-08-09T12:35:46.349Z,26.27
2017-08-09T12:35:46.948Z,26.28
2017-08-09T12:35:47.545Z,26.36
2017-08-09T12:36:41.108Z,26.12
2017-08-09T12:36:41.715Z,26.15
2017-08-09T12:36:42.300Z,26.08
2017-08-09T12:36:42.898Z,26.09
2017-08-09T12:36:43.499Z,26.04
2017-08-09T12:36:44.100Z,26.08
2017-08-09T12:36:44.696Z,26.08
2017-08-09T12:36:45.299Z,26.11
2017-08-09T12:37:39.777Z,26.27
2017-08-09T12:37:40.376Z,26.32
2017-08-09T12:37:40.975Z,26.27
2017-08-09T12:37:41.576Z,26.32
2017-08-09T12:37:42.174Z,26.29
2017-08-09T12:37:42.772Z,26.25
2017-08-09T12:37:43.375Z,26.25
2017-08-09T12:37:43.969Z,26.27
2017-08-09T12:38:38.046Z,26.24
2017-08-09T12:38:38.640Z,26.27
2017-08-09T12:38:39.239Z,26.21
2017-08-09T12:38:39.843Z,26.25
2017-08-09T12:38:40.442Z,26.20
2017-08-09T12:38:41.041Z,26.25
2017-08-09T12:38:41.639Z,26.24
2017-08-09T12:39:36.103Z,26.58
2017-08-09T12:39:36.699Z,26.61
2017-08-09T12:39:37.296Z,26.61
2017-08-09T12:39:37.900Z,26.55
2017-08-09T12:39:38.503Z,26.57
2017-08-09T12:39:39.100Z,26.57
2017-08-09T12:39:39.699Z,26.57
2017-08-09T12:39:40.297Z,26.58
2017-08-09T12:40:34.807Z,26.77
2017-08-09T12:40:35.380Z,26.74
2017-08-09T12:40:35.979Z,26.77
2017-08-09T12:40:36.572Z,26.74
2017-08-09T12:40:37.174Z,26.72
2017-08-09T12:40:37.777Z,26.67
2017-08-09T12:40:38.377Z,26.80
2017-08-09T12:40:38.979Z,26.69
2017-08-09T12:41:32.531Z,26.31
2017-08-09T12:41:33.129Z,26.29
2017-08-09T12:41:33.731Z,26.37
2017-08-09T12:41:34.331Z,26.27
2017-08-09T12:41:34.929Z,26.37
2017-08-09T12:41:35.528Z,26.37
2017-08-09T12:41:36.127Z,26.32
2017-08-09T12:41:36.735Z,26.32
2017-08-09T12:42:30.285Z,26.25
2017-08-09T12:42:30.885Z,26.29
2017-08-09T12:42:31.483Z,26.25
2017-08-09T12:42:32.085Z,26.27
2017-08-09T12:42:32.688Z,26.27
2017-08-09T12:42:33.285Z,26.27
2017-08-09T12:42:33.885Z,26.28
2017-08-09T12:42:34.487Z,26.28
2017-08-09T12:43:28.970Z,26.05
2017-08-09T12:43:29.564Z,26.15
2017-08-09T12:43:30.162Z,26.05
2017-08-09T12:43:30.755Z,26.04
2017-08-09T12:43:31.355Z,26.02
2017-08-09T12:43:31.957Z,26.04
2017-08-09T12:43:32.559Z,26.12
2017-08-09T12:43:33.161Z,26.09
2017-08-09T12:44:26.616Z,25.72
2017-08-09T12:44:27.216Z,25.77
2017-08-09T12:44:27.820Z,25.74
2017-08-09T12:44:28.413Z,25.74
2017-08-09T12:44:29.021Z,25.74
2017-08-09T12:44:29.616Z,25.69
2017-08-09T12:44:30.214Z,25.74
2017-08-09T12:44:30.817Z,25.77
2017-08-09T12:45:25.322Z,25.37
2017-08-09T12:45:25.898Z,25.42
2017-08-09T12:45:26.495Z,25.44
2017-08-09T12:45:27.095Z,25.50
2017-08-09T12:45:27.693Z,25.47
2017-08-09T12:45:28.291Z,25.52
2017-08-09T12:45:28.891Z,25.43
2017-08-09T12:45:29.491Z,25.52
2017-08-09T12:46:23.049Z,25.39
2017-08-09T12:46:23.665Z,25.37
2017-08-09T12:46:25.025Z,25.34
2017-08-09T12:46:25.537Z,25.30
2017-08-09T12:46:26.139Z,25.31
2017-08-09T12:46:26.745Z,25.32
2017-08-09T12:46:27.343Z,25.28
2017-08-09T12:47:21.824Z,25.27
2017-08-09T12:47:22.421Z,25.16
2017-08-09T12:47:23.014Z,25.17
2017-08-09T12:47:23.619Z,25.15
2017-08-09T12:47:24.217Z,25.27
2017-08-09T12:47:24.818Z,25.25
2017-08-09T12:47:25.442Z,25.16
2017-08-09T12:47:26.018Z,25.13
2017-08-09T12:48:20.504Z,25.12
2017-08-09T12:48:21.099Z,25.17
2017-08-09T12:48:21.695Z,25.06
2017-08-09T12:48:22.298Z,25.13
2017-08-09T12:48:22.895Z,25.20
2017-08-09T12:48:23.499Z,25.02
2017-08-09T12:48:24.091Z,25.12
2017-08-09T12:48:24.694Z,25.12
2017-08-09T12:49:19.173Z,25.13
2017-08-09T12:49:19.770Z,25.22
2017-08-09T12:49:20.368Z,25.15
2017-08-09T12:49:20.982Z,25.27
2017-08-09T12:49:21.571Z,25.25
2017-08-09T12:49:22.166Z,25.22
2017-08-09T12:49:22.767Z,25.24
2017-08-09T12:49:23.371Z,25.28
2017-08-09T12:50:18.673Z,25.50
2017-08-09T12:50:19.266Z,25.49
2017-08-09T12:50:19.870Z,25.49
2017-08-09T12:50:20.468Z,25.50
2017-08-09T12:50:21.073Z,25.44
2017-08-09T12:50:21.667Z,25.49
2017-08-09T12:50:22.266Z,25.52
2017-08-09T12:50:22.864Z,25.52
2017-08-09T12:51:16.446Z,25.72
2017-08-09T12:51:17.021Z,25.75
2017-08-09T12:51:17.621Z,25.77
2017-08-09T12:51:18.225Z,25.74
2017-08-09T12:51:18.823Z,25.74
2017-08-09T12:51:19.421Z,25.68
2017-08-09T12:51:20.017Z,25.74
2017-08-09T12:51:20.620Z,25.77
2017-08-09T12:52:15.510Z,25.91
2017-08-09T12:52:16.108Z,25.98
2017-08-09T12:52:16.742Z,25.90
2017-08-09T12:52:17.306Z,25.94
2017-08-09T12:52:17.908Z,25.98
2017-08-09T12:52:18.503Z,25.89
2017-08-09T12:52:19.118Z,25.97
2017-08-09T12:53:13.566Z,26.15
2017-08-09T12:53:14.168Z,26.17
2017-08-09T12:53:14.762Z,26.18
2017-08-09T12:53:15.372Z,26.17
2017-08-09T12:53:15.970Z,26.22
2017-08-09T12:53:16.567Z,26.18
2017-08-09T12:53:17.170Z,26.24
2017-08-09T12:53:17.767Z,26.18
2017-08-09T12:54:12.272Z,26.04
2017-08-09T12:54:12.843Z,26.05
2017-08-09T12:54:13.458Z,26.06
2017-08-09T12:54:14.042Z,25.99
2017-08-09T12:54:14.660Z,26.01
2017-08-09T12:54:15.244Z,25.99
2017-08-09T12:54:15.873Z,25.91
2017-08-09T12:54:16.445Z,26.01
2017-08-09T12:55:10.917Z,25.79
2017-08-09T12:55:11.514Z,25.74
2017-08-09T12:55:12.114Z,25.75
2017-08-09T12:55:12.718Z,25.74
2017-08-09T12:55:13.312Z,25.72
2017-08-09T12:55:13.915Z,25.75
2017-08-09T12:55:14.519Z,25.72
2017-08-09T12:55:15.116Z,25.77
2017-08-09T12:56:09.733Z,25.91
2017-08-09T12:56:10.296Z,25.86
2017-08-09T12:56:10.899Z,25.77
2017-08-09T12:56:11.496Z,25.87
2017-08-09T12:56:12.099Z,25.90
2017-08-09T12:56:12.692Z,25.91
2017-08-09T12:56:13.295Z,25.89
2017-08-09T12:56:13.894Z,25.87
2017-08-09T12:57:07.454Z,26.04
2017-08-09T12:57:08.055Z,25.94
2017-08-09T12:57:08.657Z,26.06
2017-08-09T12:57:09.251Z,25.98
2017-08-09T12:57:09.855Z,25.98
2017-08-09T12:57:10.449Z,25.94
2017-08-09T12:57:11.048Z,26.02
2017-08-09T12:57:11.650Z,25.93
2017-08-09T12:58:05.223Z,26.06
2017-08-09T12:58:05.802Z,26.09
2017-08-09T12:58:06.416Z,26.09
2017-08-09T12:58:07.009Z,26.05
2017-08-09T12:58:07.607Z,26.18
2017-08-09T12:58:08.209Z,26.09
2017-08-09T12:58:08.820Z,26.09
2017-08-09T12:58:09.406Z,26.08
2017-08-09T12:59:03.477Z,26.37
2017-08-09T12:59:04.072Z,26.28
2017-08-09T12:59:04.670Z,26.28
2017-08-09T12:59:05.272Z,26.36
2017-08-09T12:59:05.880Z,26.36
2017-08-09T12:59:06.475Z,26.39
2017-08-09T12:59:07.071Z,26.46
2017-08-09T13:00:03.891Z,26.64
2017-08-09T13:00:04.482Z,26.72
2017-08-09T13:00:05.088Z,26.58
2017-08-09T13:00:05.684Z,26.76
2017-08-09T13:00:06.288Z,26.59
2017-08-09T13:00:06.888Z,26.65
2017-08-09T13:01:24.005Z,27.02
2017-08-09T13:01:24.568Z,27.04
2017-08-09T13:01:25.171Z,26.95
2017-08-09T13:02:26.123Z,26.80
2017-08-09T13:02:26.719Z,26.76
2017-08-09T13:02:27.318Z,26.80
2017-08-09T13:02:27.916Z,26.74
2017-08-09T13:02:28.516Z,26.80
2017-08-09T13:02:29.123Z,26.77
2017-08-09T13:02:29.722Z,26.76
2017-08-09T13:02:30.322Z,26.80
2017-08-09T13:02:30.923Z,26.83
2017-08-09T13:02:31.516Z,26.84
2017-08-09T13:02:32.128Z,26.77
2017-08-09T13:02:32.738Z,26.81
2017-08-09T13:03:38.218Z,26.44
2017-08-09T13:03:38.812Z,26.36
2017-08-09T13:03:39.409Z,26.49
2017-08-09T13:03:40.020Z,26.44
2017-08-09T13:03:40.616Z,26.43
2017-08-09T13:03:41.212Z,26.46
2017-08-09T13:04:54.706Z,26.31
2017-08-09T13:04:55.305Z,26.39
2017-08-09T13:04:55.912Z,26.29
2017-08-09T13:04:56.516Z,26.31
2017-08-09T13:04:57.111Z,26.32
2017-08-09T13:04:57.706Z,26.28
2017-08-09T13:04:58.300Z,26.28
2017-08-09T13:04:58.902Z,26.25
2017-08-09T13:05:52.463Z,26.02
2017-08-09T13:05:53.056Z,26.01
2017-08-09T13:05:53.666Z,26.02
2017-08-09T13:05:54.260Z,26.01
2017-08-09T13:05:54.856Z,25.99
2017-08-09T13:05:55.456Z,26.01
2017-08-09T13:05:56.075Z,26.09
2017-08-09T13:05:56.660Z,26.02
2017-08-09T13:06:50.253Z,26.01
2017-08-09T13:06:50.815Z,25.99
2017-08-09T13:06:51.418Z,26.02
2017-08-09T13:06:52.015Z,26.02
2017-08-09T13:06:52.610Z,25.99
2017-08-09T13:06:53.211Z,26.05
2017-08-09T13:06:53.815Z,26.01
2017-08-09T13:06:54.411Z,25.93
2017-08-09T13:07:47.988Z,26.11
2017-08-09T13:07:48.570Z,26.06
2017-08-09T13:07:49.173Z,26.02
2017-08-09T13:07:49.795Z,26.09
2017-08-09T13:07:50.368Z,26.02
2017-08-09T13:07:50.968Z,26.18
2017-08-09T13:07:51.571Z,26.15
2017-08-09T13:07:52.177Z,26.12
2017-08-09T13:08:46.648Z,25.87
2017-08-09T13:08:47.249Z,25.86
2017-08-09T13:08:47.845Z,25.84
2017-08-09T13:08:48.445Z,25.87
2017-08-09T13:08:49.046Z,25.89
2017-08-09T13:08:49.638Z,25.89
2017-08-09T13:08:50.240Z,25.93
2017-08-09T13:08:50.855Z,25.90
2017-08-09T13:09:45.330Z,26.02
2017-08-09T13:09:45.922Z,26.02
2017-08-09T13:09:46.524Z,25.99
2017-08-09T13:09:47.125Z,25.99
2017-08-09T13:09:47.717Z,26.01
2017-08-09T13:09:48.314Z,25.98
2017-08-09T13:09:48.913Z,26.04
2017-08-09T13:09:49.517Z,26.02
2017-08-09T13:10:43.074Z,26.11
2017-08-09T13:10:43.673Z,26.04
2017-08-09T13:10:44.280Z,26.06
2017-08-09T13:10:44.870Z,26.04
2017-08-09T13:10:45.472Z,26.06
2017-08-09T13:10:46.078Z,26.01
2017-08-09T13:10:46.675Z,26.02
2017-08-09T13:10:47.273Z,26.02
2017-08-09T13:11:41.771Z,26.02
2017-08-09T13:11:42.357Z,26.02
2017-08-09T13:11:42.958Z,25.98
2017-08-09T13:11:43.542Z,26.02
2017-08-09T13:11:44.151Z,26.08
2017-08-09T13:11:44.751Z,26.01
2017-08-09T13:11:45.346Z,26.02
2017-08-09T13:11:45.948Z,26.21
2017-08-09T13:12:40.162Z,25.38
2017-08-09T13:12:40.726Z,25.37
2017-08-09T13:12:41.235Z,25.35
2017-08-09T13:12:41.836Z,25.34
2017-08-09T13:12:42.434Z,25.38
2017-08-09T13:12:43.052Z,25.32
2017-08-09T13:12:43.638Z,25.32
2017-08-09T13:13:37.156Z,25.12
2017-08-09T13:13:37.757Z,25.17
2017-08-09T13:13:38.389Z,25.25
2017-08-09T13:13:38.974Z,25.05
2017-08-09T13:13:39.570Z,25.10
2017-08-09T13:13:40.157Z,25.10
2017-08-09T13:13:40.776Z,25.13
2017-08-09T13:13:41.375Z,25.16
2017-08-09T13:14:35.324Z,25.25
2017-08-09T13:14:35.919Z,25.15
2017-08-09T13:14:36.520Z,25.16
2017-08-09T13:14:37.120Z,25.24
2017-08-09T13:14:37.718Z,25.25
2017-08-09T13:14:38.320Z,25.20
2017-08-09T13:14:38.915Z,25.19
2017-08-09T13:15:33.382Z,25.16
2017-08-09T13:15:33.975Z,25.22
2017-08-09T13:15:34.578Z,25.16
2017-08-09T13:15:35.179Z,25.16
2017-08-09T13:15:35.799Z,25.19
2017-08-09T13:15:36.381Z,25.17
2017-08-09T13:15:36.975Z,25.20
2017-08-09T13:15:37.583Z,25.13
2017-08-09T13:16:32.059Z,24.88
2017-08-09T13:16:32.656Z,24.91
2017-08-09T13:16:33.251Z,24.90
2017-08-09T13:16:33.850Z,24.95
2017-08-09T13:16:34.460Z,24.92
2017-08-09T13:16:35.053Z,24.95
2017-08-09T13:16:35.656Z,24.92
2017-08-09T13:16:36.255Z,24.90
2017-08-09T13:17:30.760Z,24.37
2017-08-09T13:17:31.332Z,24.38
2017-08-09T13:17:31.930Z,24.38
2017-08-09T13:17:32.528Z,24.37
2017-08-09T13:17:33.128Z,24.38
2017-08-09T13:17:33.730Z,24.38
2017-08-09T13:17:34.325Z,24.42
2017-08-09T13:17:34.932Z,24.37
2017-08-09T13:18:29.408Z,24.34
2017-08-09T13:18:30.005Z,24.27
2017-08-09T13:18:30.608Z,24.32
2017-08-09T13:18:31.207Z,24.26
2017-08-09T13:18:31.803Z,24.32
2017-08-09T13:18:32.400Z,24.32
2017-08-09T13:18:33.005Z,24.27
2017-08-09T13:18:33.601Z,24.32
2017-08-09T13:19:27.294Z,24.44
2017-08-09T13:19:27.889Z,24.45
2017-08-09T13:19:28.485Z,24.39
2017-08-09T13:19:29.074Z,24.44
2017-08-09T13:19:29.683Z,24.45
2017-08-09T13:19:30.269Z,24.42
2017-08-09T13:19:30.875Z,24.45
2017-08-09T13:19:31.444Z,24.41
2017-08-09T13:20:25.839Z,24.63
2017-08-09T13:20:26.434Z,24.73
2017-08-09T13:20:27.035Z,24.73
2017-08-09T13:20:27.637Z,24.71
2017-08-09T13:20:28.236Z,24.73
2017-08-09T13:20:28.850Z,24.71
2017-08-09T13:20:29.433Z,24.75
2017-08-09T13:20:30.042Z,24.75
2017-08-09T13:21:23.490Z,25.02
2017-08-09T13:21:24.094Z,25.02
2017-08-09T13:21:24.691Z,24.95
2017-08-09T13:21:25.285Z,25.00
2017-08-09T13:21:25.884Z,25.00
2017-08-09T13:21:26.488Z,24.97
2017-08-09T13:21:27.089Z,24.97
2017-08-09T13:21:27.696Z,25.00
2017-08-09T13:22:21.271Z,25.00
2017-08-09T13:22:21.840Z,25.02
2017-08-09T13:22:22.447Z,25.02
2017-08-09T13:22:23.046Z,24.97
2017-08-09T13:22:23.644Z,25.02
2017-08-09T13:22:24.245Z,25.00
2017-08-09T13:22:24.841Z,25.01
2017-08-09T13:22:25.439Z,25.06
2017-08-09T13:23:19.916Z,25.01
2017-08-09T13:23:20.516Z,24.97
2017-08-09T13:23:21.111Z,25.00
2017-08-09T13:23:21.711Z,25.05
2017-08-09T13:23:22.326Z,25.01
2017-08-09T13:23:22.917Z,25.01
2017-08-09T13:23:23.521Z,25.01
2017-08-09T13:23:24.116Z,25.01
2017-08-09T13:24:18.595Z,24.98
2017-08-09T13:24:19.194Z,24.98
2017-08-09T13:24:19.791Z,24.97
2017-08-09T13:24:20.391Z,24.98
2017-08-09T13:24:20.994Z,24.98
2017-08-09T13:24:21.588Z,25.00
2017-08-09T13:24:22.189Z,25.01
2017-08-09T13:24:22.790Z,25.00
2017-08-09T13:25:17.273Z,25.12
2017-08-09T13:25:17.866Z,25.09
2017-08-09T13:25:18.465Z,25.10
2017-08-09T13:25:19.062Z,25.22
2017-08-09T13:25:19.668Z,25.19
2017-08-09T13:25:20.262Z,25.20
2017-08-09T13:25:20.866Z,25.24
2017-08-09T13:25:21.464Z,25.19
2017-08-09T13:26:15.024Z,25.10
2017-08-09T13:26:15.618Z,25.10
2017-08-09T13:26:16.230Z,25.12
2017-08-09T13:26:16.824Z,25.16
2017-08-09T13:26:17.426Z,25.07
2017-08-09T13:26:18.024Z,25.05
2017-08-09T13:26:18.624Z,25.16
2017-08-09T13:26:19.221Z,25.09
2017-08-09T13:27:12.779Z,25.15
2017-08-09T13:27:13.378Z,25.09
2017-08-09T13:27:13.989Z,25.15
2017-08-09T13:27:14.576Z,25.06
2017-08-09T13:27:15.181Z,25.07
2017-08-09T13:27:15.778Z,25.07
2017-08-09T13:27:16.377Z,25.20
2017-08-09T13:27:16.980Z,25.10
2017-08-09T13:28:10.558Z,25.28
2017-08-09T13:28:11.128Z,25.31
2017-08-09T13:28:11.730Z,25.30
2017-08-09T13:28:12.331Z,25.30
2017-08-09T13:28:12.929Z,25.37
2017-08-09T13:28:13.527Z,25.34
2017-08-09T13:28:14.130Z,25.28
2017-08-09T13:28:14.731Z,25.30
2017-08-09T13:29:08.795Z,25.31
2017-08-09T13:29:09.393Z,25.32
2017-08-09T13:29:10.002Z,25.30
2017-08-09T13:29:10.599Z,25.32
2017-08-09T13:29:11.200Z,25.30
2017-08-09T13:29:11.798Z,25.24
2017-08-09T13:29:12.396Z,25.31
2017-08-09T13:29:12.992Z,25.34
2017-08-09T13:30:07.989Z,25.54
2017-08-09T13:30:08.583Z,25.46
2017-08-09T13:30:09.188Z,25.46
2017-08-09T13:30:09.784Z,25.50
2017-08-09T13:30:10.386Z,25.53
2017-08-09T13:30:10.996Z,25.49
2017-08-09T13:31:05.025Z,25.19
2017-08-09T13:31:05.622Z,25.20
2017-08-09T13:31:06.225Z,25.22
2017-08-09T13:31:06.839Z,25.27
2017-08-09T13:31:07.425Z,25.25
2017-08-09T13:31:08.023Z,25.27
2017-08-09T13:31:08.625Z,25.27
2017-08-09T13:31:09.222Z,25.22
2017-08-09T13:32:22.846Z,24.95
2017-08-09T13:32:23.444Z,24.97
2017-08-09T13:32:24.044Z,24.97
2017-08-09T13:32:24.726Z,25.01
2017-08-09T13:32:25.250Z,25.00
2017-08-09T13:32:25.845Z,24.95
2017-08-09T13:32:26.446Z,25.02
2017-08-09T13:32:27.043Z,24.94
2017-08-09T13:33:22.070Z,24.80
2017-08-09T13:33:22.642Z,24.79
2017-08-09T13:33:23.237Z,24.85
2017-08-09T13:33:23.833Z,24.77
2017-08-09T13:33:24.434Z,24.76
2017-08-09T13:33:25.041Z,24.75
2017-08-09T13:34:19.587Z,24.98
2017-08-09T13:34:20.179Z,25.01
2017-08-09T13:34:20.782Z,25.01
2017-08-09T13:34:21.379Z,25.00
2017-08-09T13:34:22.061Z,25.02
2017-08-09T13:34:22.586Z,25.00
2017-08-09T13:34:23.183Z,25.01
2017-08-09T13:35:24.202Z,25.42
2017-08-09T13:35:24.796Z,25.38
2017-08-09T13:35:25.406Z,25.38
2017-08-09T13:35:25.996Z,25.39
2017-08-09T13:35:26.596Z,25.44
2017-08-09T13:35:27.202Z,25.39
2017-08-09T13:35:27.803Z,25.53
2017-08-09T13:35:28.402Z,25.38
2017-08-09T13:35:28.998Z,25.47
2017-08-09T13:35:29.605Z,25.46
2017-08-09T13:35:30.197Z,25.47
2017-08-09T13:35:30.798Z,25.50
2017-08-09T13:36:24.314Z,25.74
2017-08-09T13:36:24.910Z,25.71
2017-08-09T13:36:25.517Z,25.75
2017-08-09T13:36:26.110Z,25.68
2017-08-09T13:36:26.721Z,25.74
2017-08-09T13:36:27.310Z,25.67
2017-08-09T13:36:27.904Z,25.75
2017-08-09T13:36:28.503Z,25.77
2017-08-09T13:37:32.098Z,25.72
2017-08-09T13:37:32.693Z,25.67
2017-08-09T13:37:33.297Z,25.75
2017-08-09T13:37:33.944Z,25.68
2017-08-09T13:37:34.493Z,25.77
2017-08-09T13:37:35.093Z,25.67
2017-08-09T13:37:35.696Z,25.69
2017-08-09T13:37:36.303Z,25.74
2017-08-09T13:38:29.883Z,25.86
2017-08-09T13:38:30.447Z,25.90
2017-08-09T13:38:31.069Z,25.84
2017-08-09T13:38:31.646Z,25.87
2017-08-09T13:38:32.248Z,25.90
2017-08-09T13:38:32.853Z,25.90
2017-08-09T13:38:33.457Z,25.84
2017-08-09T13:38:34.051Z,25.87
2017-08-09T13:39:29.040Z,25.97
2017-08-09T13:39:29.645Z,26.05
2017-08-09T13:39:30.237Z,26.12
2017-08-09T13:39:30.835Z,26.12
2017-08-09T13:39:31.434Z,26.08
2017-08-09T13:39:32.040Z,26.08
2017-08-09T13:40:26.082Z,26.01
2017-08-09T13:40:26.676Z,26.02
2017-08-09T13:40:27.272Z,26.01
2017-08-09T13:40:27.875Z,26.01
2017-08-09T13:40:28.612Z,26.01
2017-08-09T13:40:29.095Z,25.97
2017-08-09T13:40:29.673Z,25.97
2017-08-09T13:40:30.278Z,26.01
2017-08-09T13:41:25.261Z,26.01
2017-08-09T13:41:25.860Z,26.01
2017-08-09T13:41:26.463Z,25.91
2017-08-09T13:41:27.058Z,25.99
2017-08-09T13:41:27.658Z,25.99
2017-08-09T13:41:28.258Z,25.93
2017-08-09T13:41:28.861Z,25.89
2017-08-09T13:42:22.407Z,26.25
2017-08-09T13:42:23.005Z,26.35
2017-08-09T13:42:23.615Z,26.25
2017-08-09T13:42:24.210Z,26.36
2017-08-09T13:42:24.804Z,26.24
2017-08-09T13:42:25.403Z,26.25
2017-08-09T13:42:26.003Z,26.25
2017-08-09T13:42:26.603Z,26.25
2017-08-09T13:43:22.617Z,26.58
2017-08-09T13:43:23.215Z,26.52
2017-08-09T13:43:23.821Z,26.55
2017-08-09T13:43:24.409Z,26.52
2017-08-09T13:43:25.009Z,26.58
2017-08-09T13:43:25.609Z,26.57
2017-08-09T13:44:19.679Z,26.76
2017-08-09T13:44:20.248Z,26.79
2017-08-09T13:44:20.852Z,26.80
2017-08-09T13:44:21.451Z,26.84
2017-08-09T13:44:22.056Z,26.79
2017-08-09T13:44:22.656Z,26.80
2017-08-09T13:44:23.251Z,26.83
2017-08-09T13:44:23.853Z,26.73
2017-08-09T13:45:17.814Z,26.67
2017-08-09T13:45:18.413Z,26.77
2017-08-09T13:45:19.018Z,26.73
2017-08-09T13:45:19.612Z,26.77
2017-08-09T13:45:20.213Z,26.77
2017-08-09T13:45:20.814Z,26.77
2017-08-09T13:45:21.413Z,26.74
2017-08-09T13:46:14.959Z,26.77
2017-08-09T13:46:15.555Z,26.84
2017-08-09T13:46:16.152Z,26.80
2017-08-09T13:46:16.753Z,26.80
2017-08-09T13:46:17.355Z,26.77
2017-08-09T13:46:17.956Z,26.80
2017-08-09T13:46:18.560Z,26.81
2017-08-09T13:46:19.156Z,26.81
2017-08-09T13:47:12.713Z,26.77
2017-08-09T13:47:13.305Z,26.81
2017-08-09T13:47:13.907Z,26.74
2017-08-09T13:47:14.507Z,26.83
2017-08-09T13:47:15.112Z,26.83
2017-08-09T13:47:15.714Z,26.83
2017-08-09T13:47:16.313Z,26.79
2017-08-09T13:47:16.910Z,26.77
2017-08-09T13:48:11.287Z,26.59
2017-08-09T13:48:11.884Z,26.69
2017-08-09T13:48:12.485Z,26.64
2017-08-09T13:48:13.079Z,26.72
2017-08-09T13:48:13.683Z,26.65
2017-08-09T13:48:14.280Z,26.65
2017-08-09T13:48:14.879Z,26.72
2017-08-09T13:48:15.483Z,26.68
2017-08-09T13:49:09.990Z,26.59
2017-08-09T13:49:10.552Z,26.69
2017-08-09T13:49:11.161Z,26.65
2017-08-09T13:49:11.753Z,26.68
2017-08-09T13:49:12.353Z,26.64
2017-08-09T13:49:12.967Z,26.67
2017-08-09T13:49:13.558Z,26.62
2017-08-09T13:49:14.155Z,26.62
2017-08-09T13:50:07.721Z,26.31
2017-08-09T13:50:08.313Z,26.32
2017-08-09T13:50:08.916Z,26.31
2017-08-09T13:50:09.509Z,26.32
2017-08-09T13:50:10.112Z,26.31
2017-08-09T13:50:10.711Z,26.31
2017-08-09T13:50:11.312Z,26.31
2017-08-09T13:50:11.908Z,26.31
2017-08-09T13:51:07.321Z,26.35
2017-08-09T13:51:07.909Z,26.32
2017-08-09T13:51:08.509Z,26.31